MV Brant Point — WYS2397 — position and weather

sailwx.info

Track history (hours):
 
Tides and Currents Weather Stations Pressure Air Temp Water Temp Dewpoint Dewpoint Depression Visibility Wind Speed Wind Dir Waves Ship Positions

MV Brant Point

Owner: HYANNIS HARBOR TOURS INC, HYANNIS, MA. More information available from US FCC via Universal Licensing System and Coast Guard Vessel Documentation Center.

Last reported at 2017-Oct-12 17:20 UTC. Time now 2017-Nov-24 02:14 UTC.
Position N 42°22' W 071°03'.
Warning: this ship's position is 42 days out of date.

Length 41 m; draft 2 m.

Type: Passenger vessel. MMSI: 367320410.

Date/timePositionNaut miles runAvg speedWind from/ knotsBaromVisibWave heightAir tempDewpointWater temp
2017-Oct-12 17:20N 42°22' W 071°03'0 0.2
2017-Oct-12 17:00N 42°22' W 071°03'0 0.0
2017-Oct-12 14:17N 42°22' W 071°03'0 0.1
2017-Oct-12 14:00N 42°22' W 071°03'0 0.0
2017-Oct-11 19:44N 42°22' W 071°03'0 0.8
2017-Oct-11 19:30N 42°22' W 071°03'  
2017-Oct-08 12:11N 42°23' W 071°03'0 0.3
2017-Oct-08 12:01N 42°23' W 071°03'1 0.0
2017-Oct-06 20:29N 42°22' W 071°03'0 0.0
2017-Oct-06 20:00N 42°22' W 071°03'0 0.0
2017-Oct-06 19:31N 42°22' W 071°03'0 0.5
2017-Oct-06 19:00N 42°22' W 071°03'4 7.8
2017-Oct-06 18:31N 42°20' W 070°58'2 3.5
2017-Oct-06 18:00N 42°19' W 070°56'0 0.0
2017-Oct-06 17:31N 42°19' W 070°56'0 0.0
2017-Oct-06 17:00N 42°19' W 070°56'2 3.2
2017-Oct-06 16:30N 42°20' W 070°58'4 8.5
2017-Oct-06 16:01N 42°22' W 071°03'2 3.6
2017-Oct-06 15:30N 42°21' W 071°01'4 8.1
2017-Oct-06 15:01N 42°19' W 070°56'2 4.9
2017-Oct-06 14:31N 42°20' W 070°59'3 6.7
2017-Oct-06 14:00N 42°22' W 071°03'1 1.2
2017-Oct-06 13:30N 42°22' W 071°02'0 0.0
2017-Oct-06 13:01N 42°22' W 071°02'0 0.0
2017-Oct-06 12:31N 42°22' W 071°02'1 0.0
2017-Oct-05 21:54N 42°22' W 071°03'2 5.9
2017-Oct-05 21:30N 42°21' W 071°00'3 6.9
2017-Oct-05 21:00N 42°19' W 070°56'1 2.9
2017-Oct-05 20:30N 42°20' W 070°57'4 8.9
2017-Oct-05 20:00N 42°22' W 071°03'2 3.6
2017-Oct-05 19:30N 42°21' W 071°01'4 8.1
2017-Oct-05 19:00N 42°19' W 070°56'2 3.6
2017-Oct-05 18:30N 42°20' W 070°58'4 8.1
2017-Oct-05 18:00N 42°22' W 071°03'2 3.7
2017-Oct-05 17:31N 42°21' W 071°01'4 8.0
2017-Oct-05 17:00N 42°19' W 070°56'4 2.5
2017-Oct-05 15:30N 42°21' W 071°01'4 7.6
2017-Oct-05 15:00N 42°19' W 070°56'2 4.5
2017-Oct-05 14:30N 42°20' W 070°59'4 7.2
2017-Oct-05 14:00N 42°22' W 071°03'0 0.0
2017-Oct-04 21:54N 42°22' W 071°03'1 3.6
2017-Oct-04 21:30N 42°21' W 071°01'4 8.8
2017-Oct-04 21:00N 42°19' W 070°56'2 3.0
2017-Oct-04 20:30N 42°20' W 070°58'4 8.6
2017-Oct-04 20:00N 42°22' W 071°03'2 4.1
2017-Oct-04 19:30N 42°21' W 071°01'4 7.6
2017-Oct-04 19:00N 42°19' W 070°56'2 4.7
2017-Oct-04 18:30N 42°20' W 070°59'3 7.0
2017-Oct-04 18:00N 42°22' W 071°03'2 3.9
2017-Oct-04 17:30N 42°21' W 071°01'4 7.8
2017-Oct-04 17:00N 42°19' W 070°56'2 4.3
2017-Oct-04 16:30N 42°20' W 070°58'4 7.3
2017-Oct-04 16:00N 42°22' W 071°03'2 4.8
2017-Oct-04 15:30N 42°21' W 071°00'3 6.9
2017-Oct-04 15:00N 42°19' W 070°56'2 4.4
2017-Oct-04 14:30N 42°20' W 070°59'4 7.2
2017-Oct-04 14:00N 42°22' W 071°03'1 1.2
2017-Oct-04 13:30N 42°22' W 071°02'0 0.1
2017-Oct-04 13:00N 42°22' W 071°02'1 0.0
2017-Oct-03 21:53N 42°22' W 071°03'1 1.6
2017-Oct-03 21:30N 42°22' W 071°02'510.4
2017-Oct-03 21:00N 42°19' W 070°56'1 3.0
2017-Oct-03 20:30N 42°20' W 070°58'4 8.6
2017-Oct-03 20:00N 42°22' W 071°03'1 2.4
2017-Oct-03 19:30N 42°21' W 071°02'5 9.2
2017-Oct-03 19:00N 42°19' W 070°56'2 3.1
2017-Oct-03 18:30N 42°20' W 070°58'4 8.6
2017-Oct-03 18:00N 42°22' W 071°03'1 2.6
2017-Oct-03 17:30N 42°21' W 071°01'5 9.1
2017-Oct-03 17:00N 42°19' W 070°56'2 3.4
2017-Oct-03 16:30N 42°20' W 070°58'4 8.3
2017-Oct-03 16:00N 42°22' W 071°03'2 3.9
2017-Oct-03 15:30N 42°21' W 071°01'4 7.8
2017-Oct-03 15:00N 42°19' W 070°56'6 5.8
2017-Oct-03 14:00N 42°22' W 071°03'0 0.2
2017-Oct-03 13:30N 42°22' W 071°03'1 1.6
2017-Oct-03 13:00N 42°22' W 071°03'  
Track history (hours):
 
Tides and Currents Weather Stations Pressure Air Temp Water Temp Dewpoint Dewpoint Depression Visibility Wind Speed Wind Dir Waves Ship Positions

MV Brant Point

Owner: HYANNIS HARBOR TOURS INC, HYANNIS, MA. More information available from US FCC via Universal Licensing System and Coast Guard Vessel Documentation Center.

Last reported at 2017-Oct-12 17:20 UTC. Time now 2017-Nov-24 02:14 UTC.
Position N 42°22' W 071°03'.
Warning: this ship's position is 42 days out of date.

Length 41 m; draft 2 m.

Type: Passenger vessel. MMSI: 367320410.

Date/timePositionNaut miles runAvg speedWind from/ knotsBaromVisibWave heightAir tempDewpointWater temp
2017-Oct-12 17:20N 42°22' W 071°03'0 0.2
2017-Oct-12 17:00N 42°22' W 071°03'0 0.0
2017-Oct-12 14:17N 42°22' W 071°03'0 0.1
2017-Oct-12 14:00N 42°22' W 071°03'0 0.0
2017-Oct-11 19:44N 42°22' W 071°03'0 0.8
2017-Oct-11 19:30N 42°22' W 071°03'  
2017-Oct-08 12:11N 42°23' W 071°03'0 0.3
2017-Oct-08 12:01N 42°23' W 071°03'1 0.0
2017-Oct-06 20:29N 42°22' W 071°03'0 0.0
2017-Oct-06 20:00N 42°22' W 071°03'0 0.0
2017-Oct-06 19:31N 42°22' W 071°03'0 0.5
2017-Oct-06 19:00N 42°22' W 071°03'4 7.8
2017-Oct-06 18:31N 42°20' W 070°58'2 3.5
2017-Oct-06 18:00N 42°19' W 070°56'0 0.0
2017-Oct-06 17:31N 42°19' W 070°56'0 0.0
2017-Oct-06 17:00N 42°19' W 070°56'2 3.2
2017-Oct-06 16:30N 42°20' W 070°58'4 8.5
2017-Oct-06 16:01N 42°22' W 071°03'2 3.6
2017-Oct-06 15:30N 42°21' W 071°01'4 8.1
2017-Oct-06 15:01N 42°19' W 070°56'2 4.9
2017-Oct-06 14:31N 42°20' W 070°59'3 6.7
2017-Oct-06 14:00N 42°22' W 071°03'1 1.2
2017-Oct-06 13:30N 42°22' W 071°02'0 0.0
2017-Oct-06 13:01N 42°22' W 071°02'0 0.0
2017-Oct-06 12:31N 42°22' W 071°02'1 0.0
2017-Oct-05 21:54N 42°22' W 071°03'2 5.9
2017-Oct-05 21:30N 42°21' W 071°00'3 6.9
2017-Oct-05 21:00N 42°19' W 070°56'1 2.9
2017-Oct-05 20:30N 42°20' W 070°57'4 8.9
2017-Oct-05 20:00N 42°22' W 071°03'2 3.6
2017-Oct-05 19:30N 42°21' W 071°01'4 8.1
2017-Oct-05 19:00N 42°19' W 070°56'2 3.6
2017-Oct-05 18:30N 42°20' W 070°58'4 8.1
2017-Oct-05 18:00N 42°22' W 071°03'2 3.7
2017-Oct-05 17:31N 42°21' W 071°01'4 8.0
2017-Oct-05 17:00N 42°19' W 070°56'4 2.5
2017-Oct-05 15:30N 42°21' W 071°01'4 7.6
2017-Oct-05 15:00N 42°19' W 070°56'2 4.5
2017-Oct-05 14:30N 42°20' W 070°59'4 7.2
2017-Oct-05 14:00N 42°22' W 071°03'0 0.0
2017-Oct-04 21:54N 42°22' W 071°03'1 3.6
2017-Oct-04 21:30N 42°21' W 071°01'4 8.8
2017-Oct-04 21:00N 42°19' W 070°56'2 3.0
2017-Oct-04 20:30N 42°20' W 070°58'4 8.6
2017-Oct-04 20:00N 42°22' W 071°03'2 4.1
2017-Oct-04 19:30N 42°21' W 071°01'4 7.6
2017-Oct-04 19:00N 42°19' W 070°56'2 4.7
2017-Oct-04 18:30N 42°20' W 070°59'3 7.0
2017-Oct-04 18:00N 42°22' W 071°03'2 3.9
2017-Oct-04 17:30N 42°21' W 071°01'4 7.8
2017-Oct-04 17:00N 42°19' W 070°56'2 4.3
2017-Oct-04 16:30N 42°20' W 070°58'4 7.3
2017-Oct-04 16:00N 42°22' W 071°03'2 4.8
2017-Oct-04 15:30N 42°21' W 071°00'3 6.9
2017-Oct-04 15:00N 42°19' W 070°56'2 4.4
2017-Oct-04 14:30N 42°20' W 070°59'4 7.2
2017-Oct-04 14:00N 42°22' W 071°03'1 1.2
2017-Oct-04 13:30N 42°22' W 071°02'0 0.1
2017-Oct-04 13:00N 42°22' W 071°02'1 0.0
2017-Oct-03 21:53N 42°22' W 071°03'1 1.6
2017-Oct-03 21:30N 42°22' W 071°02'510.4
2017-Oct-03 21:00N 42°19' W 070°56'1 3.0
2017-Oct-03 20:30N 42°20' W 070°58'4 8.6
2017-Oct-03 20:00N 42°22' W 071°03'1 2.4
2017-Oct-03 19:30N 42°21' W 071°02'5 9.2
2017-Oct-03 19:00N 42°19' W 070°56'2 3.1
2017-Oct-03 18:30N 42°20' W 070°58'4 8.6
2017-Oct-03 18:00N 42°22' W 071°03'1 2.6
2017-Oct-03 17:30N 42°21' W 071°01'5 9.1
2017-Oct-03 17:00N 42°19' W 070°56'2 3.4
2017-Oct-03 16:30N 42°20' W 070°58'4 8.3
2017-Oct-03 16:00N 42°22' W 071°03'2 3.9
2017-Oct-03 15:30N 42°21' W 071°01'4 7.8
2017-Oct-03 15:00N 42°19' W 070°56'6 5.8
2017-Oct-03 14:00N 42°22' W 071°03'0 0.2
2017-Oct-03 13:30N 42°22' W 071°03'1 1.6
2017-Oct-03 13:00N 42°22' W 071°03'  

Dump ship's entire track history